sensor_id;sensor_type;location;lat;lon;timestamp;temperature;humidity
17948;DHT22;9099;47.958;11.366;2023-08-06T00:01:36;15.50;99.90
17948;DHT22;9099;47.958;11.366;2023-08-06T00:04:03;15.50;99.90
17948;DHT22;9099;47.958;11.366;2023-08-06T00:06:30;15.50;99.90
17948;DHT22;9099;47.958;11.366;2023-08-06T00:08:57;15.40;99.90
17948;DHT22;9099;47.958;11.366;2023-08-06T00:11:25;15.30;99.90
17948;DHT22;9099;47.958;11.366;2023-08-06T00:13:52;15.30;99.90
17948;DHT22;9099;47.958;11.366;2023-08-06T00:16:18;15.30;99.90
17948;DHT22;9099;47.958;11.366;2023-08-06T00:18:45;15.20;99.90
17948;DHT22;9099;47.958;11.366;2023-08-06T00:21:12;15.10;99.90
17948;DHT22;9099;47.958;11.366;2023-08-06T00:23:39;15.10;99.90
17948;DHT22;9099;47.958;11.366;2023-08-06T00:26:06;15.10;99.90
17948;DHT22;9099;47.958;11.366;2023-08-06T00:28:34;15.10;99.90
17948;DHT22;9099;47.958;11.366;2023-08-06T00:31:01;15.20;99.90
17948;DHT22;9099;47.958;11.366;2023-08-06T00:33:29;15.20;99.90
17948;DHT22;9099;47.958;11.366;2023-08-06T00:36:00;15.20;99.90
17948;DHT22;9099;47.958;11.366;2023-08-06T00:38:27;15.20;99.90
17948;DHT22;9099;47.958;11.366;2023-08-06T00:40:53;15.20;99.90
17948;DHT22;9099;47.958;11.366;2023-08-06T00:43:20;15.10;99.90
17948;DHT22;9099;47.958;11.366;2023-08-06T00:45:49;15.10;99.90
17948;DHT22;9099;47.958;11.366;2023-08-06T00:48:16;15.00;99.90
17948;DHT22;9099;47.958;11.366;2023-08-06T00:50:43;14.90;99.90
17948;DHT22;9099;47.958;11.366;2023-08-06T00:53:10;14.90;99.90
17948;DHT22;9099;47.958;11.366;2023-08-06T00:55:37;14.80;99.90
17948;DHT22;9099;47.958;11.366;2023-08-06T00:58:04;14.90;99.90
17948;DHT22;9099;47.958;11.366;2023-08-06T01:00:31;14.90;99.90
17948;DHT22;9099;47.958;11.366;2023-08-06T01:03:00;14.90;99.90
17948;DHT22;9099;47.958;11.366;2023-08-06T01:05:27;14.90;99.90
17948;DHT22;9099;47.958;11.366;2023-08-06T01:08:06;14.90;99.90
17948;DHT22;9099;47.958;11.366;2023-08-06T01:10:51;14.90;99.90
17948;DHT22;9099;47.958;11.366;2023-08-06T01:13:27;14.90;99.90
17948;DHT22;9099;47.958;11.366;2023-08-06T01:15:56;14.90;99.90
17948;DHT22;9099;47.958;11.366;2023-08-06T01:18:26;14.90;99.90
17948;DHT22;9099;47.958;11.366;2023-08-06T01:20:54;14.90;99.90
17948;DHT22;9099;47.958;11.366;2023-08-06T01:23:21;14.90;99.90
17948;DHT22;9099;47.958;11.366;2023-08-06T01:25:53;14.90;99.90
17948;DHT22;9099;47.958;11.366;2023-08-06T01:28:27;14.80;99.90
17948;DHT22;9099;47.958;11.366;2023-08-06T01:30:59;14.70;99.90
17948;DHT22;9099;47.958;11.366;2023-08-06T01:33:29;14.70;99.90
17948;DHT22;9099;47.958;11.366;2023-08-06T01:35:59;14.70;99.90
17948;DHT22;9099;47.958;11.366;2023-08-06T01:38:26;14.70;99.90
17948;DHT22;9099;47.958;11.366;2023-08-06T01:40:53;14.70;99.90
17948;DHT22;9099;47.958;11.366;2023-08-06T01:43:20;14.70;99.90
17948;DHT22;9099;47.958;11.366;2023-08-06T01:45:47;14.70;99.90
17948;DHT22;9099;47.958;11.366;2023-08-06T01:48:14;14.70;99.90
17948;DHT22;9099;47.958;11.366;2023-08-06T01:50:41;14.70;99.90
17948;DHT22;9099;47.958;11.366;2023-08-06T01:53:09;14.60;99.90
17948;DHT22;9099;47.958;11.366;2023-08-06T01:55:36;14.60;99.90
17948;DHT22;9099;47.958;11.366;2023-08-06T01:58:02;14.60;99.90
17948;DHT22;9099;47.958;11.366;2023-08-06T02:00:29;14.50;99.90
17948;DHT22;9099;47.958;11.366;2023-08-06T02:02:56;14.50;99.90
17948;DHT22;9099;47.958;11.366;2023-08-06T02:05:23;14.50;99.90
17948;DHT22;9099;47.958;11.366;2023-08-06T02:07:50;14.50;99.90
17948;DHT22;9099;47.958;11.366;2023-08-06T02:10:18;14.50;99.90
17948;DHT22;9099;47.958;11.366;2023-08-06T02:12:45;14.50;99.90
17948;DHT22;9099;47.958;11.366;2023-08-06T02:15:12;14.40;99.90
17948;DHT22;9099;47.958;11.366;2023-08-06T02:17:38;14.50;99.90
17948;DHT22;9099;47.958;11.366;2023-08-06T02:20:06;14.40;99.90
17948;DHT22;9099;47.958;11.366;2023-08-06T02:22:35;14.40;99.90
17948;DHT22;9099;47.958;11.366;2023-08-06T02:25:04;14.40;99.90
17948;DHT22;9099;47.958;11.366;2023-08-06T02:27:34;14.40;99.90
17948;DHT22;9099;47.958;11.366;2023-08-06T02:30:01;14.40;99.90
17948;DHT22;9099;47.958;11.366;2023-08-06T02:32:30;14.30;99.90
17948;DHT22;9099;47.958;11.366;2023-08-06T02:34:57;14.30;99.90
17948;DHT22;9099;47.958;11.366;2023-08-06T02:37:24;14.30;99.90
17948;DHT22;9099;47.958;11.366;2023-08-06T02:39:51;14.40;99.90
17948;DHT22;9099;47.958;11.366;2023-08-06T02:42:18;14.40;99.90
17948;DHT22;9099;47.958;11.366;2023-08-06T02:44:46;14.30;99.90
17948;DHT22;9099;47.958;11.366;2023-08-06T02:47:13;14.30;99.90
17948;DHT22;9099;47.958;11.366;2023-08-06T02:49:40;14.30;99.90
17948;DHT22;9099;47.958;11.366;2023-08-06T02:52:07;14.40;99.90
17948;DHT22;9099;47.958;11.366;2023-08-06T02:54:34;14.40;99.90
17948;DHT22;9099;47.958;11.366;2023-08-06T02:57:01;14.40;99.90
17948;DHT22;9099;47.958;11.366;2023-08-06T02:59:27;14.30;99.90
17948;DHT22;9099;47.958;11.366;2023-08-06T03:01:56;14.30;99.90
17948;DHT22;9099;47.958;11.366;2023-08-06T03:04:23;14.30;99.90
17948;DHT22;9099;47.958;11.366;2023-08-06T03:06:50;14.30;99.90
17948;DHT22;9099;47.958;11.366;2023-08-06T03:09:17;14.30;99.90
17948;DHT22;9099;47.958;11.366;2023-08-06T03:11:44;14.30;99.90
17948;DHT22;9099;47.958;11.366;2023-08-06T03:14:10;14.30;99.90
17948;DHT22;9099;47.958;11.366;2023-08-06T03:16:38;14.30;99.90
17948;DHT22;9099;47.958;11.366;2023-08-06T03:19:08;14.30;99.90
17948;DHT22;9099;47.958;11.366;2023-08-06T03:21:35;14.30;99.90
17948;DHT22;9099;47.958;11.366;2023-08-06T03:24:02;14.30;99.90
17948;DHT22;9099;47.958;11.366;2023-08-06T03:26:28;14.30;99.90
17948;DHT22;9099;47.958;11.366;2023-08-06T03:28:56;14.30;99.90
17948;DHT22;9099;47.958;11.366;2023-08-06T03:31:23;14.30;99.90
17948;DHT22;9099;47.958;11.366;2023-08-06T03:33:50;14.30;99.90
17948;DHT22;9099;47.958;11.366;2023-08-06T03:36:18;14.30;99.90
17948;DHT22;9099;47.958;11.366;2023-08-06T03:38:45;14.20;99.90
17948;DHT22;9099;47.958;11.366;2023-08-06T03:41:12;14.20;99.90
17948;DHT22;9099;47.958;11.366;2023-08-06T03:43:39;14.20;99.90
17948;DHT22;9099;47.958;11.366;2023-08-06T03:46:05;14.20;99.90
17948;DHT22;9099;47.958;11.366;2023-08-06T03:48:32;14.20;99.90
17948;DHT22;9099;47.958;11.366;2023-08-06T03:50:59;14.20;99.90
17948;DHT22;9099;47.958;11.366;2023-08-06T03:53:28;14.20;99.90
17948;DHT22;9099;47.958;11.366;2023-08-06T03:55:55;14.20;99.90
17948;DHT22;9099;47.958;11.366;2023-08-06T03:58:25;14.20;99.90
17948;DHT22;9099;47.958;11.366;2023-08-06T04:00:58;14.10;99.90
17948;DHT22;9099;47.958;11.366;2023-08-06T04:03:25;14.20;99.90
17948;DHT22;9099;47.958;11.366;2023-08-06T04:05:52;14.10;99.90
17948;DHT22;9099;47.958;11.366;2023-08-06T04:08:19;14.20;99.90
17948;DHT22;9099;47.958;11.366;2023-08-06T04:10:52;14.10;99.90
17948;DHT22;9099;47.958;11.366;2023-08-06T04:13:19;14.10;99.90
17948;DHT22;9099;47.958;11.366;2023-08-06T04:15:46;14.10;99.90
17948;DHT22;9099;47.958;11.366;2023-08-06T04:18:13;14.10;99.90
17948;DHT22;9099;47.958;11.366;2023-08-06T04:20:43;14.10;99.90
17948;DHT22;9099;47.958;11.366;2023-08-06T04:23:10;14.10;99.90
17948;DHT22;9099;47.958;11.366;2023-08-06T04:25:37;14.20;99.90
17948;DHT22;9099;47.958;11.366;2023-08-06T04:28:06;14.20;99.90
17948;DHT22;9099;47.958;11.366;2023-08-06T04:30:33;14.30;99.90
17948;DHT22;9099;47.958;11.366;2023-08-06T04:33:00;14.20;99.90
17948;DHT22;9099;47.958;11.366;2023-08-06T04:35:27;14.30;99.90
17948;DHT22;9099;47.958;11.366;2023-08-06T04:37:53;14.40;99.90
17948;DHT22;9099;47.958;11.366;2023-08-06T04:40:20;14.40;99.90
17948;DHT22;9099;47.958;11.366;2023-08-06T04:42:47;14.40;99.90
17948;DHT22;9099;47.958;11.366;2023-08-06T04:45:15;14.50;99.90
17948;DHT22;9099;47.958;11.366;2023-08-06T04:47:42;14.50;99.90
17948;DHT22;9099;47.958;11.366;2023-08-06T04:50:09;14.60;99.90
17948;DHT22;9099;47.958;11.366;2023-08-06T04:52:37;14.70;99.90
17948;DHT22;9099;47.958;11.366;2023-08-06T04:55:05;14.70;99.90
17948;DHT22;9099;47.958;11.366;2023-08-06T04:57:32;14.70;99.90
17948;DHT22;9099;47.958;11.366;2023-08-06T04:59:59;14.70;99.90
17948;DHT22;9099;47.958;11.366;2023-08-06T05:02:27;14.70;99.90
17948;DHT22;9099;47.958;11.366;2023-08-06T05:04:54;14.80;99.90
17948;DHT22;9099;47.958;11.366;2023-08-06T05:07:20;14.80;99.90
17948;DHT22;9099;47.958;11.366;2023-08-06T05:09:47;14.80;99.90
17948;DHT22;9099;47.958;11.366;2023-08-06T05:12:14;14.90;99.90
17948;DHT22;9099;47.958;11.366;2023-08-06T05:14:41;14.90;99.90
17948;DHT22;9099;47.958;11.366;2023-08-06T05:17:08;15.00;99.90
17948;DHT22;9099;47.958;11.366;2023-08-06T05:19:36;15.00;99.90
17948;DHT22;9099;47.958;11.366;2023-08-06T05:22:03;15.10;99.90
17948;DHT22;9099;47.958;11.366;2023-08-06T05:24:30;15.10;99.90
17948;DHT22;9099;47.958;11.366;2023-08-06T05:26:57;15.20;99.90
17948;DHT22;9099;47.958;11.366;2023-08-06T05:29:23;15.30;99.90
17948;DHT22;9099;47.958;11.366;2023-08-06T05:31:50;15.30;99.90
17948;DHT22;9099;47.958;11.366;2023-08-06T05:34:17;15.30;99.90
17948;DHT22;9099;47.958;11.366;2023-08-06T05:36:45;15.30;99.90
17948;DHT22;9099;47.958;11.366;2023-08-06T05:39:12;15.30;99.90
17948;DHT22;9099;47.958;11.366;2023-08-06T05:41:39;15.30;99.90
17948;DHT22;9099;47.958;11.366;2023-08-06T05:44:06;15.30;99.90
17948;DHT22;9099;47.958;11.366;2023-08-06T05:46:32;15.30;99.90
17948;DHT22;9099;47.958;11.366;2023-08-06T05:49:01;15.30;99.90
17948;DHT22;9099;47.958;11.366;2023-08-06T05:51:29;15.40;99.90
17948;DHT22;9099;47.958;11.366;2023-08-06T05:53:57;15.40;99.90
17948;DHT22;9099;47.958;11.366;2023-08-06T05:56:24;15.50;99.90
17948;DHT22;9099;47.958;11.366;2023-08-06T05:58:52;15.60;99.90
17948;DHT22;9099;47.958;11.366;2023-08-06T06:01:19;15.70;99.90
17948;DHT22;9099;47.958;11.366;2023-08-06T06:03:46;15.90;99.90
17948;DHT22;9099;47.958;11.366;2023-08-06T06:06:13;16.30;99.90
17948;DHT22;9099;47.958;11.366;2023-08-06T06:08:40;16.80;99.90
17948;DHT22;9099;47.958;11.366;2023-08-06T06:11:09;17.40;99.90
17948;DHT22;9099;47.958;11.366;2023-08-06T06:13:36;18.30;99.90
17948;DHT22;9099;47.958;11.366;2023-08-06T06:16:03;19.20;99.90
17948;DHT22;9099;47.958;11.366;2023-08-06T06:18:30;19.60;99.90
17948;DHT22;9099;47.958;11.366;2023-08-06T06:20:57;19.80;99.90
17948;DHT22;9099;47.958;11.366;2023-08-06T06:23:24;19.80;99.90
17948;DHT22;9099;47.958;11.366;2023-08-06T06:25:51;19.90;99.90
17948;DHT22;9099;47.958;11.366;2023-08-06T06:28:19;19.80;99.90
17948;DHT22;9099;47.958;11.366;2023-08-06T06:30:46;19.80;99.90
17948;DHT22;9099;47.958;11.366;2023-08-06T06:33:13;19.60;99.90
17948;DHT22;9099;47.958;11.366;2023-08-06T06:35:40;19.30;99.90
17948;DHT22;9099;47.958;11.366;2023-08-06T06:38:07;19.10;99.90
17948;DHT22;9099;47.958;11.366;2023-08-06T06:40:33;18.90;99.90
17948;DHT22;9099;47.958;11.366;2023-08-06T06:43:00;18.80;99.90
17948;DHT22;9099;47.958;11.366;2023-08-06T06:45:28;18.50;99.90
17948;DHT22;9099;47.958;11.366;2023-08-06T06:47:55;18.30;99.90
17948;DHT22;9099;47.958;11.366;2023-08-06T06:50:22;18.00;99.90
17948;DHT22;9099;47.958;11.366;2023-08-06T06:52:49;17.80;99.90
17948;DHT22;9099;47.958;11.366;2023-08-06T06:55:16;17.70;99.90
17948;DHT22;9099;47.958;11.366;2023-08-06T06:57:43;17.60;99.90
17948;DHT22;9099;47.958;11.366;2023-08-06T07:00:10;17.50;99.90
17948;DHT22;9099;47.958;11.366;2023-08-06T07:02:39;17.30;99.90
17948;DHT22;9099;47.958;11.366;2023-08-06T07:05:06;17.20;99.90
17948;DHT22;9099;47.958;11.366;2023-08-06T07:07:33;17.00;99.90
17948;DHT22;9099;47.958;11.366;2023-08-06T07:10:01;16.90;99.90
17948;DHT22;9099;47.958;11.366;2023-08-06T07:12:28;16.70;99.90
17948;DHT22;9099;47.958;11.366;2023-08-06T07:14:55;16.40;99.90
17948;DHT22;9099;47.958;11.366;2023-08-06T07:17:21;16.30;99.90
17948;DHT22;9099;47.958;11.366;2023-08-06T07:19:50;16.20;99.90
17948;DHT22;9099;47.958;11.366;2023-08-06T07:22:16;16.20;99.90
17948;DHT22;9099;47.958;11.366;2023-08-06T07:24:43;16.00;99.90
17948;DHT22;9099;47.958;11.366;2023-08-06T07:27:10;15.90;99.90
17948;DHT22;9099;47.958;11.366;2023-08-06T07:29:37;15.90;99.90
17948;DHT22;9099;47.958;11.366;2023-08-06T07:32:05;16.00;99.90
17948;DHT22;9099;47.958;11.366;2023-08-06T07:34:32;16.10;99.90
17948;DHT22;9099;47.958;11.366;2023-08-06T07:37:01;16.10;99.90
17948;DHT22;9099;47.958;11.366;2023-08-06T07:39:27;16.20;99.90
17948;DHT22;9099;47.958;11.366;2023-08-06T07:41:54;16.20;99.90
17948;DHT22;9099;47.958;11.366;2023-08-06T07:44:21;16.30;99.90
17948;DHT22;9099;47.958;11.366;2023-08-06T07:46:51;16.40;99.90
17948;DHT22;9099;47.958;11.366;2023-08-06T07:49:19;16.50;99.90
17948;DHT22;9099;47.958;11.366;2023-08-06T07:51:46;16.40;99.90
17948;DHT22;9099;47.958;11.366;2023-08-06T07:54:14;16.40;99.90
17948;DHT22;9099;47.958;11.366;2023-08-06T07:56:41;16.60;99.90
17948;DHT22;9099;47.958;11.366;2023-08-06T07:59:08;16.80;99.90
17948;DHT22;9099;47.958;11.366;2023-08-06T08:01:35;17.00;99.90
17948;DHT22;9099;47.958;11.366;2023-08-06T08:04:01;17.20;99.90
17948;DHT22;9099;47.958;11.366;2023-08-06T08:06:30;17.30;99.90
17948;DHT22;9099;47.958;11.366;2023-08-06T08:08:57;17.60;99.90
17948;DHT22;9099;47.958;11.366;2023-08-06T08:11:25;17.70;99.90
17948;DHT22;9099;47.958;11.366;2023-08-06T08:13:52;17.90;99.90
17948;DHT22;9099;47.958;11.366;2023-08-06T08:16:19;17.90;99.90
17948;DHT22;9099;47.958;11.366;2023-08-06T08:18:46;18.20;99.90
17948;DHT22;9099;47.958;11.366;2023-08-06T08:21:13;18.30;99.90
17948;DHT22;9099;47.958;11.366;2023-08-06T08:23:39;18.40;99.90
17948;DHT22;9099;47.958;11.366;2023-08-06T08:26:07;18.40;99.90
17948;DHT22;9099;47.958;11.366;2023-08-06T08:28:35;18.30;99.90
17948;DHT22;9099;47.958;11.366;2023-08-06T08:31:02;18.00;99.90
17948;DHT22;9099;47.958;11.366;2023-08-06T08:33:29;17.70;99.90
17948;DHT22;9099;47.958;11.366;2023-08-06T08:35:56;17.50;99.90
17948;DHT22;9099;47.958;11.366;2023-08-06T08:38:23;17.40;99.90
17948;DHT22;9099;47.958;11.366;2023-08-06T08:40:53;17.30;99.90
17948;DHT22;9099;47.958;11.366;2023-08-06T08:43:21;17.10;99.90
17948;DHT22;9099;47.958;11.366;2023-08-06T08:45:52;16.90;99.90
17948;DHT22;9099;47.958;11.366;2023-08-06T08:48:21;17.10;99.90
17948;DHT22;9099;47.958;11.366;2023-08-06T08:50:49;17.40;99.90
17948;DHT22;9099;47.958;11.366;2023-08-06T08:53:17;17.60;99.90
17948;DHT22;9099;47.958;11.366;2023-08-06T08:55:49;17.70;99.90
17948;DHT22;9099;47.958;11.366;2023-08-06T08:58:16;18.00;99.90
17948;DHT22;9099;47.958;11.366;2023-08-06T09:00:45;18.30;99.90
17948;DHT22;9099;47.958;11.366;2023-08-06T09:03:13;18.40;99.90
17948;DHT22;9099;47.958;11.366;2023-08-06T09:05:44;18.50;99.90
17948;DHT22;9099;47.958;11.366;2023-08-06T09:08:12;18.40;99.90
17948;DHT22;9099;47.958;11.366;2023-08-06T09:10:43;18.40;99.90
17948;DHT22;9099;47.958;11.366;2023-08-06T09:13:10;18.20;99.90
17948;DHT22;9099;47.958;11.366;2023-08-06T09:15:38;18.00;99.90
17948;DHT22;9099;47.958;11.366;2023-08-06T09:18:09;17.70;99.90
17948;DHT22;9099;47.958;11.366;2023-08-06T09:20:38;17.60;99.90
17948;DHT22;9099;47.958;11.366;2023-08-06T09:23:07;17.30;99.90
17948;DHT22;9099;47.958;11.366;2023-08-06T09:25:38;17.10;99.90
17948;DHT22;9099;47.958;11.366;2023-08-06T09:28:05;16.90;99.90
17948;DHT22;9099;47.958;11.366;2023-08-06T09:30:33;16.80;99.90
17948;DHT22;9099;47.958;11.366;2023-08-06T09:33:00;16.90;99.90
17948;DHT22;9099;47.958;11.366;2023-08-06T09:35:28;17.00;99.90
17948;DHT22;9099;47.958;11.366;2023-08-06T09:38:05;17.20;99.90
17948;DHT22;9099;47.958;11.366;2023-08-06T09:40:34;17.30;99.90
17948;DHT22;9099;47.958;11.366;2023-08-06T09:43:01;17.70;99.90
17948;DHT22;9099;47.958;11.366;2023-08-06T09:45:30;17.90;99.90
17948;DHT22;9099;47.958;11.366;2023-08-06T09:47:58;18.00;99.90
17948;DHT22;9099;47.958;11.366;2023-08-06T09:50:30;17.90;99.90
17948;DHT22;9099;47.958;11.366;2023-08-06T09:52:59;17.70;99.90
17948;DHT22;9099;47.958;11.366;2023-08-06T09:55:27;17.90;99.90
17948;DHT22;9099;47.958;11.366;2023-08-06T09:57:54;17.90;99.90
17948;DHT22;9099;47.958;11.366;2023-08-06T10:00:22;17.80;99.90
17948;DHT22;9099;47.958;11.366;2023-08-06T10:02:49;17.70;99.90
17948;DHT22;9099;47.958;11.366;2023-08-06T10:05:21;17.70;99.90
17948;DHT22;9099;47.958;11.366;2023-08-06T10:07:49;17.70;99.90
17948;DHT22;9099;47.958;11.366;2023-08-06T10:10:17;17.80;99.90
17948;DHT22;9099;47.958;11.366;2023-08-06T10:12:47;17.70;99.90
17948;DHT22;9099;47.958;11.366;2023-08-06T10:15:17;17.70;99.90
17948;DHT22;9099;47.958;11.366;2023-08-06T10:17:45;17.60;99.90
17948;DHT22;9099;47.958;11.366;2023-08-06T10:20:13;17.50;99.90
17948;DHT22;9099;47.958;11.366;2023-08-06T10:22:42;17.20;99.90
17948;DHT22;9099;47.958;11.366;2023-08-06T10:25:10;17.10;99.90
17948;DHT22;9099;47.958;11.366;2023-08-06T10:27:53;17.00;99.90
17948;DHT22;9099;47.958;11.366;2023-08-06T10:30:22;16.90;99.90
17948;DHT22;9099;47.958;11.366;2023-08-06T10:32:49;17.00;99.90
17948;DHT22;9099;47.958;11.366;2023-08-06T10:35:31;16.90;99.90
17948;DHT22;9099;47.958;11.366;2023-08-06T10:37:59;16.90;99.90
17948;DHT22;9099;47.958;11.366;2023-08-06T10:40:26;16.80;99.90
17948;DHT22;9099;47.958;11.366;2023-08-06T10:42:58;16.70;99.90
17948;DHT22;9099;47.958;11.366;2023-08-06T10:45:25;16.60;99.90
17948;DHT22;9099;47.958;11.366;2023-08-06T10:47:54;16.60;99.90
17948;DHT22;9099;47.958;11.366;2023-08-06T10:50:22;16.50;99.90
17948;DHT22;9099;47.958;11.366;2023-08-06T10:52:48;16.50;99.90
17948;DHT22;9099;47.958;11.366;2023-08-06T10:55:22;16.50;99.90
17948;DHT22;9099;47.958;11.366;2023-08-06T10:57:49;16.50;99.90
17948;DHT22;9099;47.958;11.366;2023-08-06T11:00:17;16.50;99.90
17948;DHT22;9099;47.958;11.366;2023-08-06T11:02:47;16.50;99.90
17948;DHT22;9099;47.958;11.366;2023-08-06T11:05:14;16.40;99.90
17948;DHT22;9099;47.958;11.366;2023-08-06T11:07:41;16.30;99.90
17948;DHT22;9099;47.958;11.366;2023-08-06T11:10:09;16.20;99.90
17948;DHT22;9099;47.958;11.366;2023-08-06T11:12:37;16.20;99.90
17948;DHT22;9099;47.958;11.366;2023-08-06T11:15:04;16.30;99.90
17948;DHT22;9099;47.958;11.366;2023-08-06T11:17:34;16.20;99.90
17948;DHT22;9099;47.958;11.366;2023-08-06T11:20:02;16.10;99.90
17948;DHT22;9099;47.958;11.366;2023-08-06T11:22:30;16.10;99.90
17948;DHT22;9099;47.958;11.366;2023-08-06T11:24:57;16.10;99.90
17948;DHT22;9099;47.958;11.366;2023-08-06T11:27:26;16.20;99.90
17948;DHT22;9099;47.958;11.366;2023-08-06T11:29:53;16.00;99.90
17948;DHT22;9099;47.958;11.366;2023-08-06T11:32:20;15.90;99.90
17948;DHT22;9099;47.958;11.366;2023-08-06T11:34:48;15.90;99.90
17948;DHT22;9099;47.958;11.366;2023-08-06T11:37:15;15.90;99.90
17948;DHT22;9099;47.958;11.366;2023-08-06T11:39:46;15.90;99.90
17948;DHT22;9099;47.958;11.366;2023-08-06T11:42:13;15.80;99.90
17948;DHT22;9099;47.958;11.366;2023-08-06T11:44:41;15.70;99.90
17948;DHT22;9099;47.958;11.366;2023-08-06T11:47:13;15.70;99.90
17948;DHT22;9099;47.958;11.366;2023-08-06T11:49:41;15.80;99.90
17948;DHT22;9099;47.958;11.366;2023-08-06T11:52:21;15.90;99.90
17948;DHT22;9099;47.958;11.366;2023-08-06T11:55:00;15.80;99.90
17948;DHT22;9099;47.958;11.366;2023-08-06T11:57:29;15.80;99.90
17948;DHT22;9099;47.958;11.366;2023-08-06T12:00:00;15.70;99.90
17948;DHT22;9099;47.958;11.366;2023-08-06T12:02:31;15.70;99.90
17948;DHT22;9099;47.958;11.366;2023-08-06T12:05:04;15.90;99.90
17948;DHT22;9099;47.958;11.366;2023-08-06T12:07:33;16.00;99.90
17948;DHT22;9099;47.958;11.366;2023-08-06T12:10:03;16.10;99.90
17948;DHT22;9099;47.958;11.366;2023-08-06T12:12:30;16.30;99.90
17948;DHT22;9099;47.958;11.366;2023-08-06T12:14:57;16.40;99.90
17948;DHT22;9099;47.958;11.366;2023-08-06T12:17:24;16.40;99.90
17948;DHT22;9099;47.958;11.366;2023-08-06T12:19:51;16.40;99.90
17948;DHT22;9099;47.958;11.366;2023-08-06T12:22:18;16.40;99.90
17948;DHT22;9099;47.958;11.366;2023-08-06T12:24:47;16.20;99.90
17948;DHT22;9099;47.958;11.366;2023-08-06T12:27:14;16.30;99.90
17948;DHT22;9099;47.958;11.366;2023-08-06T12:29:42;16.30;99.90
17948;DHT22;9099;47.958;11.366;2023-08-06T12:32:09;16.40;99.90
17948;DHT22;9099;47.958;11.366;2023-08-06T12:34:37;16.40;99.90
17948;DHT22;9099;47.958;11.366;2023-08-06T12:37:04;16.40;99.90
17948;DHT22;9099;47.958;11.366;2023-08-06T12:39:31;16.40;99.90
17948;DHT22;9099;47.958;11.366;2023-08-06T12:41:59;16.30;99.90
17948;DHT22;9099;47.958;11.366;2023-08-06T12:44:26;16.30;99.90
17948;DHT22;9099;47.958;11.366;2023-08-06T12:46:53;16.20;99.90
17948;DHT22;9099;47.958;11.366;2023-08-06T12:49:20;16.10;99.90
17948;DHT22;9099;47.958;11.366;2023-08-06T12:51:48;16.00;99.90
17948;DHT22;9099;47.958;11.366;2023-08-06T12:54:16;15.90;99.90
17948;DHT22;9099;47.958;11.366;2023-08-06T12:56:44;15.90;99.90
17948;DHT22;9099;47.958;11.366;2023-08-06T12:59:15;15.90;99.90
17948;DHT22;9099;47.958;11.366;2023-08-06T13:01:42;15.80;99.90
17948;DHT22;9099;47.958;11.366;2023-08-06T13:04:09;15.60;99.90
17948;DHT22;9099;47.958;11.366;2023-08-06T13:06:36;15.30;99.90
17948;DHT22;9099;47.958;11.366;2023-08-06T13:09:03;15.20;99.90
17948;DHT22;9099;47.958;11.366;2023-08-06T13:11:30;15.10;99.90
17948;DHT22;9099;47.958;11.366;2023-08-06T13:14:03;14.90;99.90
17948;DHT22;9099;47.958;11.366;2023-08-06T13:16:31;14.70;99.90
17948;DHT22;9099;47.958;11.366;2023-08-06T13:18:58;14.70;99.90
17948;DHT22;9099;47.958;11.366;2023-08-06T13:21:31;14.60;99.90
17948;DHT22;9099;47.958;11.366;2023-08-06T13:23:58;14.60;99.90
17948;DHT22;9099;47.958;11.366;2023-08-06T13:26:25;14.50;99.90
17948;DHT22;9099;47.958;11.366;2023-08-06T13:28:52;14.50;99.90
17948;DHT22;9099;47.958;11.366;2023-08-06T13:31:19;14.50;99.90
17948;DHT22;9099;47.958;11.366;2023-08-06T13:33:47;14.60;99.90
17948;DHT22;9099;47.958;11.366;2023-08-06T13:36:15;14.60;99.90
17948;DHT22;9099;47.958;11.366;2023-08-06T13:38:42;14.60;99.90
17948;DHT22;9099;47.958;11.366;2023-08-06T13:41:09;14.60;99.90
17948;DHT22;9099;47.958;11.366;2023-08-06T13:43:35;14.50;99.90
17948;DHT22;9099;47.958;11.366;2023-08-06T13:46:02;14.40;99.90
17948;DHT22;9099;47.958;11.366;2023-08-06T13:48:29;14.40;99.90
17948;DHT22;9099;47.958;11.366;2023-08-06T13:50:57;14.40;99.90
17948;DHT22;9099;47.958;11.366;2023-08-06T13:53:24;14.60;99.90
17948;DHT22;9099;47.958;11.366;2023-08-06T13:55:55;14.70;99.90
17948;DHT22;9099;47.958;11.366;2023-08-06T13:58:22;14.90;99.90
17948;DHT22;9099;47.958;11.366;2023-08-06T14:00:49;15.20;99.90
17948;DHT22;9099;47.958;11.366;2023-08-06T14:03:18;15.40;99.90
17948;DHT22;9099;47.958;11.366;2023-08-06T14:05:45;15.50;99.90
17948;DHT22;9099;47.958;11.366;2023-08-06T14:08:13;15.60;99.90
17948;DHT22;9099;47.958;11.366;2023-08-06T14:10:40;15.60;99.90
17948;DHT22;9099;47.958;11.366;2023-08-06T14:13:07;15.50;99.90
17948;DHT22;9099;47.958;11.366;2023-08-06T14:15:33;15.40;99.90
17948;DHT22;9099;47.958;11.366;2023-08-06T14:18:00;15.30;99.90
17948;DHT22;9099;47.958;11.366;2023-08-06T14:20:27;15.20;99.90
17948;DHT22;9099;47.958;11.366;2023-08-06T14:22:54;15.00;99.90
17948;DHT22;9099;47.958;11.366;2023-08-06T14:25:23;15.00;99.90
17948;DHT22;9099;47.958;11.366;2023-08-06T14:27:50;14.90;99.90
17948;DHT22;9099;47.958;11.366;2023-08-06T14:30:17;14.80;99.90
17948;DHT22;9099;47.958;11.366;2023-08-06T14:32:44;14.70;99.90
17948;DHT22;9099;47.958;11.366;2023-08-06T14:35:11;14.50;99.90
17948;DHT22;9099;47.958;11.366;2023-08-06T14:37:37;14.40;99.90
17948;DHT22;9099;47.958;11.366;2023-08-06T14:40:05;14.30;99.90
17948;DHT22;9099;47.958;11.366;2023-08-06T14:42:34;14.30;99.90
17948;DHT22;9099;47.958;11.366;2023-08-06T14:45:01;14.20;99.90
17948;DHT22;9099;47.958;11.366;2023-08-06T14:47:29;14.10;99.90
17948;DHT22;9099;47.958;11.366;2023-08-06T14:49:56;14.00;99.90
17948;DHT22;9099;47.958;11.366;2023-08-06T14:52:22;14.00;99.90
17948;DHT22;9099;47.958;11.366;2023-08-06T14:54:49;14.00;99.90
17948;DHT22;9099;47.958;11.366;2023-08-06T14:57:17;14.00;99.90
17948;DHT22;9099;47.958;11.366;2023-08-06T14:59:45;13.90;99.90
17948;DHT22;9099;47.958;11.366;2023-08-06T15:02:12;14.00;99.90
17948;DHT22;9099;47.958;11.366;2023-08-06T15:04:39;13.90;99.90
17948;DHT22;9099;47.958;11.366;2023-08-06T15:07:06;13.90;99.90
17948;DHT22;9099;47.958;11.366;2023-08-06T15:09:35;14.00;99.90
17948;DHT22;9099;47.958;11.366;2023-08-06T15:12:02;14.00;99.90
17948;DHT22;9099;47.958;11.366;2023-08-06T15:14:29;14.00;99.90
17948;DHT22;9099;47.958;11.366;2023-08-06T15:16:57;14.00;99.90
17948;DHT22;9099;47.958;11.366;2023-08-06T15:19:24;14.10;99.90
17948;DHT22;9099;47.958;11.366;2023-08-06T15:21:50;14.10;99.90
17948;DHT22;9099;47.958;11.366;2023-08-06T15:24:17;14.10;99.90
17948;DHT22;9099;47.958;11.366;2023-08-06T15:26:44;14.20;99.90
17948;DHT22;9099;47.958;11.366;2023-08-06T15:29:11;14.40;99.90
17948;DHT22;9099;47.958;11.366;2023-08-06T15:31:38;14.50;99.90
17948;DHT22;9099;47.958;11.366;2023-08-06T15:34:07;14.50;99.90